sensor_id;sensor_type;location;lat;lon;timestamp;pressure;altitude;pressure_sealevel;temperature;humidity
31357;BME280;60001;48.404;11.738;2023-03-04T00:00:25;96619.31;;;2.29;79.93
31357;BME280;60001;48.404;11.738;2023-03-04T00:01:57;96627.13;;;2.29;80.21
31357;BME280;60001;48.404;11.738;2023-03-04T00:03:29;96622.91;;;2.28;79.68
31357;BME280;60001;48.404;11.738;2023-03-04T00:05:00;96619.91;;;2.25;78.92
31357;BME280;60001;48.404;11.738;2023-03-04T00:06:33;96622.31;;;2.26;79.19
31357;BME280;60001;48.404;11.738;2023-03-04T00:08:05;96624.69;;;2.21;78.42
31357;BME280;60001;48.404;11.738;2023-03-04T00:09:36;96625.06;;;2.18;78.90
31357;BME280;60001;48.404;11.738;2023-03-04T00:11:09;96617.22;;;2.11;78.92
31357;BME280;60001;48.404;11.738;2023-03-04T00:12:40;96620.19;;;2.08;78.71
31357;BME280;60001;48.404;11.738;2023-03-04T00:14:12;96619.31;;;2.01;78.34
31357;BME280;60001;48.404;11.738;2023-03-04T00:15:43;96622.94;;;2.00;78.47
31357;BME280;60001;48.404;11.738;2023-03-04T00:17:15;96612.31;;;1.95;79.05
31357;BME280;60001;48.404;11.738;2023-03-04T00:18:47;96624.97;;;2.05;79.68
31357;BME280;60001;48.404;11.738;2023-03-04T00:20:18;96619.97;;;2.03;79.29
31357;BME280;60001;48.404;11.738;2023-03-04T00:21:49;96621.97;;;2.08;79.32
31357;BME280;60001;48.404;11.738;2023-03-04T00:23:21;96623.63;;;2.09;79.45
31357;BME280;60001;48.404;11.738;2023-03-04T00:24:53;96622.19;;;2.06;78.44
31357;BME280;60001;48.404;11.738;2023-03-04T00:26:25;96621.38;;;2.06;78.95
31357;BME280;60001;48.404;11.738;2023-03-04T00:27:57;96626.72;;;1.98;78.40
31357;BME280;60001;48.404;11.738;2023-03-04T00:29:28;96603.59;;;1.81;78.27
31357;BME280;60001;48.404;11.738;2023-03-04T00:31:00;96630.09;;;1.91;78.68
31357;BME280;60001;48.404;11.738;2023-03-04T00:32:31;96626.06;;;1.89;78.05
31357;BME280;60001;48.404;11.738;2023-03-04T00:34:03;96625.03;;;1.83;77.79
31357;BME280;60001;48.404;11.738;2023-03-04T00:35:35;96630.78;;;1.79;78.65
31357;BME280;60001;48.404;11.738;2023-03-04T00:37:07;96625.97;;;1.76;78.82
31357;BME280;60001;48.404;11.738;2023-03-04T00:38:38;96619.97;;;1.75;79.17
31357;BME280;60001;48.404;11.738;2023-03-04T00:40:11;96624.56;;;1.80;78.72
31357;BME280;60001;48.404;11.738;2023-03-04T00:41:44;96621.56;;;1.76;78.27
31357;BME280;60001;48.404;11.738;2023-03-04T00:43:16;96622.38;;;1.77;78.63
31357;BME280;60001;48.404;11.738;2023-03-04T00:44:47;96627.38;;;1.78;78.48
31357;BME280;60001;48.404;11.738;2023-03-04T00:46:19;96626.78;;;1.76;78.63
31357;BME280;60001;48.404;11.738;2023-03-04T00:47:50;96636.78;;;1.79;79.05
31357;BME280;60001;48.404;11.738;2023-03-04T00:49:22;96621.97;;;1.80;78.91
31357;BME280;60001;48.404;11.738;2023-03-04T00:50:54;96634.19;;;1.79;78.83
31357;BME280;60001;48.404;11.738;2023-03-04T00:52:26;96635.38;;;1.77;78.33
31357;BME280;60001;48.404;11.738;2023-03-04T00:53:57;96631.72;;;1.71;77.99
31357;BME280;60001;48.404;11.738;2023-03-04T00:55:29;96628.06;;;1.65;78.06
31357;BME280;60001;48.404;11.738;2023-03-04T00:57:03;96620.84;;;1.61;77.69
31357;BME280;60001;48.404;11.738;2023-03-04T00:58:34;96612.16;;;1.54;78.42
31357;BME280;60001;48.404;11.738;2023-03-04T01:00:07;96617.97;;;1.56;78.40
31357;BME280;60001;48.404;11.738;2023-03-04T01:01:39;96625.34;;;1.52;78.45
31357;BME280;60001;48.404;11.738;2023-03-04T01:03:11;96614.88;;;1.46;78.21
31357;BME280;60001;48.404;11.738;2023-03-04T01:04:43;96615.72;;;1.46;78.65
31357;BME280;60001;48.404;11.738;2023-03-04T01:06:15;96622.31;;;1.49;79.17
31357;BME280;60001;48.404;11.738;2023-03-04T01:07:47;96616.50;;;1.47;78.54
31357;BME280;60001;48.404;11.738;2023-03-04T01:09:17;96610.13;;;1.49;79.21
31357;BME280;60001;48.404;11.738;2023-03-04T01:10:49;96624.19;;;1.55;78.93
31357;BME280;60001;48.404;11.738;2023-03-04T01:12:22;96606.31;;;1.52;79.08
31357;BME280;60001;48.404;11.738;2023-03-04T01:13:54;96606.16;;;1.53;78.61
31357;BME280;60001;48.404;11.738;2023-03-04T01:15:26;96606.53;;;1.50;78.39
31357;BME280;60001;48.404;11.738;2023-03-04T01:16:58;96603.50;;;1.47;78.68
31357;BME280;60001;48.404;11.738;2023-03-04T01:18:29;96602.44;;;1.41;78.14
31357;BME280;60001;48.404;11.738;2023-03-04T01:20:01;96602.78;;;1.38;78.81
31357;BME280;60001;48.404;11.738;2023-03-04T01:21:33;96604.59;;;1.37;78.92
31357;BME280;60001;48.404;11.738;2023-03-04T01:23:04;96599.41;;;1.37;79.17
31357;BME280;60001;48.404;11.738;2023-03-04T01:24:36;96601.38;;;1.35;78.83
31357;BME280;60001;48.404;11.738;2023-03-04T01:26:07;96604.00;;;1.35;78.59
31357;BME280;60001;48.404;11.738;2023-03-04T01:27:40;96599.59;;;1.36;78.81
31357;BME280;60001;48.404;11.738;2023-03-04T01:29:12;96594.75;;;1.33;79.08
31357;BME280;60001;48.404;11.738;2023-03-04T01:30:44;96589.97;;;1.36;78.86
31357;BME280;60001;48.404;11.738;2023-03-04T01:32:15;96592.38;;;1.38;79.55
31357;BME280;60001;48.404;11.738;2023-03-04T01:33:47;96587.03;;;1.40;79.53
31357;BME280;60001;48.404;11.738;2023-03-04T01:35:19;96586.03;;;1.41;79.27
31357;BME280;60001;48.404;11.738;2023-03-04T01:36:50;96592.84;;;1.42;79.04
31357;BME280;60001;48.404;11.738;2023-03-04T01:38:21;96588.63;;;1.41;78.46
31357;BME280;60001;48.404;11.738;2023-03-04T01:39:53;96590.44;;;1.40;78.41
31357;BME280;60001;48.404;11.738;2023-03-04T01:41:26;96589.63;;;1.40;78.84
31357;BME280;60001;48.404;11.738;2023-03-04T01:43:00;96588.78;;;1.39;78.87
31357;BME280;60001;48.404;11.738;2023-03-04T01:44:32;96594.63;;;1.41;78.94
31357;BME280;60001;48.404;11.738;2023-03-04T01:46:04;96586.03;;;1.41;78.71
31357;BME280;60001;48.404;11.738;2023-03-04T01:47:36;96591.41;;;1.39;78.88
31357;BME280;60001;48.404;11.738;2023-03-04T01:49:09;96585.78;;;1.35;78.15
31357;BME280;60001;48.404;11.738;2023-03-04T01:50:43;96585.16;;;1.33;78.24
31357;BME280;60001;48.404;11.738;2023-03-04T01:52:15;96582.72;;;1.32;78.64
31357;BME280;60001;48.404;11.738;2023-03-04T01:53:48;96580.97;;;1.32;79.33
31357;BME280;60001;48.404;11.738;2023-03-04T01:55:23;96575.75;;;1.32;79.03
31357;BME280;60001;48.404;11.738;2023-03-04T01:56:57;96573.69;;;1.28;78.88
31357;BME280;60001;48.404;11.738;2023-03-04T01:58:31;96575.56;;;1.34;78.44
31357;BME280;60001;48.404;11.738;2023-03-04T02:00:17;96568.44;;;1.21;78.57
31357;BME280;60001;48.404;11.738;2023-03-04T02:01:51;96561.97;;;1.17;78.80
31357;BME280;60001;48.404;11.738;2023-03-04T02:03:24;96567.81;;;1.19;78.72
31357;BME280;60001;48.404;11.738;2023-03-04T02:04:55;96569.44;;;1.20;78.90
31357;BME280;60001;48.404;11.738;2023-03-04T02:06:27;96571.38;;;1.18;79.27
31357;BME280;60001;48.404;11.738;2023-03-04T02:07:59;96563.59;;;1.18;79.30
31357;BME280;60001;48.404;11.738;2023-03-04T02:09:33;96572.03;;;1.20;78.71
31357;BME280;60001;48.404;11.738;2023-03-04T02:11:05;96560.56;;;1.15;79.16
31357;BME280;60001;48.404;11.738;2023-03-04T02:12:36;96571.78;;;1.15;79.29
31357;BME280;60001;48.404;11.738;2023-03-04T02:14:11;96573.75;;;1.13;79.35
31357;BME280;60001;48.404;11.738;2023-03-04T02:15:44;96564.97;;;1.14;79.55
31357;BME280;60001;48.404;11.738;2023-03-04T02:17:23;96571.78;;;1.15;79.94
31357;BME280;60001;48.404;11.738;2023-03-04T02:18:55;96565.97;;;1.13;79.50
31357;BME280;60001;48.404;11.738;2023-03-04T02:20:37;96566.75;;;1.14;78.90
31357;BME280;60001;48.404;11.738;2023-03-04T02:22:14;96558.50;;;1.10;78.94
31357;BME280;60001;48.404;11.738;2023-03-04T02:23:53;96562.72;;;1.11;79.34
31357;BME280;60001;48.404;11.738;2023-03-04T02:25:35;96566.16;;;1.12;79.16
31357;BME280;60001;48.404;11.738;2023-03-04T02:27:10;96560.31;;;1.09;79.22
31357;BME280;60001;48.404;11.738;2023-03-04T02:28:43;96565.72;;;1.08;79.60
31357;BME280;60001;48.404;11.738;2023-03-04T02:30:18;96560.50;;;1.08;79.13
31357;BME280;60001;48.404;11.738;2023-03-04T02:31:53;96561.31;;;1.08;80.00
31357;BME280;60001;48.404;11.738;2023-03-04T02:33:24;96564.53;;;1.10;79.56
31357;BME280;60001;48.404;11.738;2023-03-04T02:34:56;96560.13;;;1.11;79.29
31357;BME280;60001;48.404;11.738;2023-03-04T02:36:28;96558.91;;;1.07;79.02
31357;BME280;60001;48.404;11.738;2023-03-04T02:38:00;96563.28;;;1.06;79.76
31357;BME280;60001;48.404;11.738;2023-03-04T02:39:34;96561.69;;;1.05;79.22
31357;BME280;60001;48.404;11.738;2023-03-04T02:41:11;96564.66;;;1.02;79.60
31357;BME280;60001;48.404;11.738;2023-03-04T02:42:45;96558.66;;;1.02;79.54
31357;BME280;60001;48.404;11.738;2023-03-04T02:44:18;96560.03;;;0.98;79.63
31357;BME280;60001;48.404;11.738;2023-03-04T02:45:51;96560.75;;;0.92;79.43
31357;BME280;60001;48.404;11.738;2023-03-04T02:47:21;96547.69;;;0.85;79.74
31357;BME280;60001;48.404;11.738;2023-03-04T02:48:53;96555.56;;;0.92;80.61
31357;BME280;60001;48.404;11.738;2023-03-04T02:50:29;96557.34;;;0.91;80.35
31357;BME280;60001;48.404;11.738;2023-03-04T02:52:05;96557.78;;;0.95;80.15
31357;BME280;60001;48.404;11.738;2023-03-04T02:53:37;96554.81;;;0.98;80.82
31357;BME280;60001;48.404;11.738;2023-03-04T02:55:09;96555.44;;;1.00;80.64
31357;BME280;60001;48.404;11.738;2023-03-04T02:56:44;96551.66;;;1.02;80.83
31357;BME280;60001;48.404;11.738;2023-03-04T02:58:20;96552.44;;;1.03;80.05
31357;BME280;60001;48.404;11.738;2023-03-04T02:59:52;96553.09;;;1.05;80.10
31357;BME280;60001;48.404;11.738;2023-03-04T03:01:27;96558.09;;;1.06;80.39
31357;BME280;60001;48.404;11.738;2023-03-04T03:02:59;96557.28;;;1.06;79.71
31357;BME280;60001;48.404;11.738;2023-03-04T03:04:31;96548.50;;;1.07;80.22
31357;BME280;60001;48.404;11.738;2023-03-04T03:06:03;96556.31;;;1.07;79.68
31357;BME280;60001;48.404;11.738;2023-03-04T03:07:35;96556.31;;;1.07;79.68
31357;BME280;60001;48.404;11.738;2023-03-04T03:09:07;96561.69;;;1.05;79.30
31357;BME280;60001;48.404;11.738;2023-03-04T03:10:39;96560.09;;;1.04;79.69
31357;BME280;60001;48.404;11.738;2023-03-04T03:12:10;96553.25;;;1.03;79.71
31357;BME280;60001;48.404;11.738;2023-03-04T03:13:43;96556.03;;;1.02;79.28
31357;BME280;60001;48.404;11.738;2023-03-04T03:15:16;96558.03;;;1.00;78.94
31357;BME280;60001;48.404;11.738;2023-03-04T03:16:47;96550.59;;;0.97;79.20
31357;BME280;60001;48.404;11.738;2023-03-04T03:18:19;96551.78;;;0.94;78.97
31357;BME280;60001;48.404;11.738;2023-03-04T03:19:51;96555.38;;;0.93;78.82
31357;BME280;60001;48.404;11.738;2023-03-04T03:21:22;96554.75;;;0.91;79.58
31357;BME280;60001;48.404;11.738;2023-03-04T03:22:54;96551.50;;;0.89;78.83
31357;BME280;60001;48.404;11.738;2023-03-04T03:24:24;96553.69;;;0.86;78.76
31357;BME280;60001;48.404;11.738;2023-03-04T03:25:56;96549.84;;;0.81;78.96
31357;BME280;60001;48.404;11.738;2023-03-04T03:27:28;96540.09;;;0.69;78.41
31357;BME280;60001;48.404;11.738;2023-03-04T03:29:00;96564.56;;;0.74;78.83
31357;BME280;60001;48.404;11.738;2023-03-04T03:30:32;96567.72;;;0.70;78.86
31357;BME280;60001;48.404;11.738;2023-03-04T03:32:03;96564.47;;;0.68;78.40
31357;BME280;60001;48.404;11.738;2023-03-04T03:33:35;96562.25;;;0.65;78.03
31357;BME280;60001;48.404;11.738;2023-03-04T03:35:07;96571.38;;;0.61;78.73
31357;BME280;60001;48.404;11.738;2023-03-04T03:36:39;96572.75;;;0.57;78.59
31357;BME280;60001;48.404;11.738;2023-03-04T03:38:10;96571.97;;;0.56;78.85
31357;BME280;60001;48.404;11.738;2023-03-04T03:39:42;96564.50;;;0.53;78.85
31357;BME280;60001;48.404;11.738;2023-03-04T03:41:13;96566.13;;;0.54;79.32
31357;BME280;60001;48.404;11.738;2023-03-04T03:42:44;96563.88;;;0.51;78.43
31357;BME280;60001;48.404;11.738;2023-03-04T03:44:18;96568.28;;;0.50;79.52
31357;BME280;60001;48.404;11.738;2023-03-04T03:45:49;96564.88;;;0.50;79.13
31357;BME280;60001;48.404;11.738;2023-03-04T03:47:22;96558.09;;;0.49;79.35
31357;BME280;60001;48.404;11.738;2023-03-04T03:48:53;96563.63;;;0.46;79.27
31357;BME280;60001;48.404;11.738;2023-03-04T03:50:25;96570.19;;;0.42;79.05
31357;BME280;60001;48.404;11.738;2023-03-04T03:51:58;96563.53;;;0.39;78.77
31357;BME280;60001;48.404;11.738;2023-03-04T03:53:29;96552.38;;;0.24;79.17
31357;BME280;60001;48.404;11.738;2023-03-04T03:55:01;96569.13;;;0.36;78.87
31357;BME280;60001;48.404;11.738;2023-03-04T03:56:31;96562.47;;;0.34;79.51
31357;BME280;60001;48.404;11.738;2023-03-04T03:58:04;96559.25;;;0.32;79.03
31357;BME280;60001;48.404;11.738;2023-03-04T03:59:37;96563.03;;;0.29;79.49
31357;BME280;60001;48.404;11.738;2023-03-04T04:01:08;96547.88;;;0.18;79.66
31357;BME280;60001;48.404;11.738;2023-03-04T04:02:40;96560.34;;;0.22;79.39
31357;BME280;60001;48.404;11.738;2023-03-04T04:04:12;96560.06;;;0.17;80.13
31357;BME280;60001;48.404;11.738;2023-03-04T04:05:44;96561.34;;;0.21;80.20
31357;BME280;60001;48.404;11.738;2023-03-04T04:07:16;96570.72;;;0.22;80.61
31357;BME280;60001;48.404;11.738;2023-03-04T04:08:48;96566.16;;;0.24;80.82
31357;BME280;60001;48.404;11.738;2023-03-04T04:10:19;96563.03;;;0.29;80.78
31357;BME280;60001;48.404;11.738;2023-03-04T04:11:51;96557.66;;;0.31;80.65
31357;BME280;60001;48.404;11.738;2023-03-04T04:13:23;96543.78;;;0.23;80.61
31357;BME280;60001;48.404;11.738;2023-03-04T04:14:56;96558.63;;;0.30;80.19
31357;BME280;60001;48.404;11.738;2023-03-04T04:16:29;96550.66;;;0.31;80.29
31357;BME280;60001;48.404;11.738;2023-03-04T04:18:01;96554.06;;;0.32;80.24
31357;BME280;60001;48.404;11.738;2023-03-04T04:19:32;96557.47;;;0.32;79.94
31357;BME280;60001;48.404;11.738;2023-03-04T04:21:04;96552.06;;;0.34;80.20
31357;BME280;60001;48.404;11.738;2023-03-04T04:22:36;96552.25;;;0.32;79.80
31357;BME280;60001;48.404;11.738;2023-03-04T04:24:07;96552.44;;;0.31;79.65
31357;BME280;60001;48.404;11.738;2023-03-04T04:25:39;96550.03;;;0.29;79.65
31357;BME280;60001;48.404;11.738;2023-03-04T04:27:11;96549.59;;;0.25;79.83
31357;BME280;60001;48.404;11.738;2023-03-04T04:28:42;96546.38;;;0.23;79.66
31357;BME280;60001;48.404;11.738;2023-03-04T04:30:16;96552.97;;;0.26;80.02
31357;BME280;60001;48.404;11.738;2023-03-04T04:31:48;96549.78;;;0.24;79.57
31357;BME280;60001;48.404;11.738;2023-03-04T04:33:20;96545.47;;;0.16;79.63
31357;BME280;60001;48.404;11.738;2023-03-04T04:34:51;96550.31;;;0.19;79.73
31357;BME280;60001;48.404;11.738;2023-03-04T04:36:22;96545.91;;;0.20;79.65
31357;BME280;60001;48.404;11.738;2023-03-04T04:37:53;96541.09;;;0.17;79.33
31357;BME280;60001;48.404;11.738;2023-03-04T04:39:25;96542.69;;;0.18;79.68
31357;BME280;60001;48.404;11.738;2023-03-04T04:40:57;96546.63;;;0.14;79.57
31357;BME280;60001;48.404;11.738;2023-03-04T04:42:30;96540.81;;;0.12;79.57
31357;BME280;60001;48.404;11.738;2023-03-04T04:44:02;96547.19;;;0.09;79.35
31357;BME280;60001;48.404;11.738;2023-03-04T04:45:34;96539.94;;;0.05;79.51
31357;BME280;60001;48.404;11.738;2023-03-04T04:47:06;96540.53;;;0.07;79.93
31357;BME280;60001;48.404;11.738;2023-03-04T04:48:38;96547.53;;;0.06;79.97
31357;BME280;60001;48.404;11.738;2023-03-04T04:50:09;96540.91;;;0.04;80.35
31357;BME280;60001;48.404;11.738;2023-03-04T04:51:41;96542.88;;;0.02;79.78
31357;BME280;60001;48.404;11.738;2023-03-04T04:53:13;96534.13;;;0.03;79.88
31357;BME280;60001;48.404;11.738;2023-03-04T04:54:45;96536.91;;;0.01;79.67
31357;BME280;60001;48.404;11.738;2023-03-04T04:56:19;96543.50;;;0.04;80.48
31357;BME280;60001;48.404;11.738;2023-03-04T04:57:52;96545.31;;;0.03;80.44
31357;BME280;60001;48.404;11.738;2023-03-04T04:59:23;96541.09;;;0.02;80.18
31357;BME280;60001;48.404;11.738;2023-03-04T05:00:57;96541.53;;;0.06;80.31
31357;BME280;60001;48.404;11.738;2023-03-04T05:02:27;96540.53;;;0.07;79.83
31357;BME280;60001;48.404;11.738;2023-03-04T05:04:00;96545.91;;;0.05;79.97
31357;BME280;60001;48.404;11.738;2023-03-04T05:05:31;96544.31;;;0.04;80.04
31357;BME280;60001;48.404;11.738;2023-03-04T05:07:03;96545.50;;;0.02;79.40
31357;BME280;60001;48.404;11.738;2023-03-04T05:08:35;96545.41;;;-0.05;79.29
31357;BME280;60001;48.404;11.738;2023-03-04T05:10:07;96543.78;;;-0.06;79.92
31357;BME280;60001;48.404;11.738;2023-03-04T05:11:39;96547.19;;;-0.06;79.97
31357;BME280;60001;48.404;11.738;2023-03-04T05:13:10;96537.94;;;-0.08;79.32
31357;BME280;60001;48.404;11.738;2023-03-04T05:14:41;96541.25;;;-0.14;80.06
31357;BME280;60001;48.404;11.738;2023-03-04T05:16:16;96545.22;;;-0.18;79.46
31357;BME280;60001;48.404;11.738;2023-03-04T05:17:48;96547.81;;;-0.18;79.15
31357;BME280;60001;48.404;11.738;2023-03-04T05:19:18;96549.41;;;-0.17;80.08
31357;BME280;60001;48.404;11.738;2023-03-04T05:20:51;96558.63;;;-0.15;80.04
31357;BME280;60001;48.404;11.738;2023-03-04T05:22:23;96553.09;;;-0.12;79.97
31357;BME280;60001;48.404;11.738;2023-03-04T05:23:54;96560.69;;;-0.10;80.58
31357;BME280;60001;48.404;11.738;2023-03-04T05:25:26;96566.69;;;-0.10;79.90
31357;BME280;60001;48.404;11.738;2023-03-04T05:26:58;96558.47;;;-0.13;79.97
31357;BME280;60001;48.404;11.738;2023-03-04T05:28:30;96564.47;;;-0.13;79.56
31357;BME280;60001;48.404;11.738;2023-03-04T05:30:03;96563.47;;;-0.12;79.80
31357;BME280;60001;48.404;11.738;2023-03-04T05:31:36;96565.06;;;-0.11;79.94
31357;BME280;60001;48.404;11.738;2023-03-04T05:33:09;96555.88;;;-0.13;79.60
31357;BME280;60001;48.404;11.738;2023-03-04T05:34:40;96562.66;;;-0.12;79.77
31357;BME280;60001;48.404;11.738;2023-03-04T05:36:12;96561.06;;;-0.13;79.58
31357;BME280;60001;48.404;11.738;2023-03-04T05:37:44;96563.81;;;-0.15;79.93
31357;BME280;60001;48.404;11.738;2023-03-04T05:39:15;96564.81;;;-0.16;79.23
31357;BME280;60001;48.404;11.738;2023-03-04T05:40:48;96566.59;;;-0.16;79.82
31357;BME280;60001;48.404;11.738;2023-03-04T05:42:19;96558.19;;;-0.18;79.28
31357;BME280;60001;48.404;11.738;2023-03-04T05:43:50;96565.16;;;-0.19;79.12
31357;BME280;60001;48.404;11.738;2023-03-04T05:45:22;96561.91;;;-0.21;79.73
31357;BME280;60001;48.404;11.738;2023-03-04T05:46:56;96552.19;;;-0.19;79.48
31357;BME280;60001;48.404;11.738;2023-03-04T05:48:27;96554.97;;;-0.20;79.84
31357;BME280;60001;48.404;11.738;2023-03-04T05:49:59;96564.38;;;-0.19;79.61
31357;BME280;60001;48.404;11.738;2023-03-04T05:51:31;96565.16;;;-0.19;79.71
31357;BME280;60001;48.404;11.738;2023-03-04T05:53:03;96555.31;;;-0.23;79.80
31357;BME280;60001;48.404;11.738;2023-03-04T05:54:35;96565.97;;;-0.18;79.97
31357;BME280;60001;48.404;11.738;2023-03-04T05:56:08;96561.41;;;-0.16;79.48
31357;BME280;60001;48.404;11.738;2023-03-04T05:57:40;96564.81;;;-0.16;79.50
31357;BME280;60001;48.404;11.738;2023-03-04T05:59:11;96564.81;;;-0.16;79.94
31357;BME280;60001;48.404;11.738;2023-03-04T06:00:43;96565.44;;;-0.14;80.11
31357;BME280;60001;48.404;11.738;2023-03-04T06:02:15;96566.88;;;-0.11;79.75
31357;BME280;60001;48.404;11.738;2023-03-04T06:03:47;96562.84;;;-0.14;79.87
31357;BME280;60001;48.404;11.738;2023-03-04T06:05:19;96561.50;;;-0.10;79.36
31357;BME280;60001;48.404;11.738;2023-03-04T06:06:51;96573.47;;;-0.09;79.81
31357;BME280;60001;48.404;11.738;2023-03-04T06:08:23;96574.28;;;-0.08;79.32
31357;BME280;60001;48.404;11.738;2023-03-04T06:09:55;96563.91;;;-0.08;79.21
31357;BME280;60001;48.404;11.738;2023-03-04T06:11:26;96576.25;;;-0.10;79.14
31357;BME280;60001;48.404;11.738;2023-03-04T06:12:59;96566.25;;;-0.13;79.41
31357;BME280;60001;48.404;11.738;2023-03-04T06:14:30;96572.69;;;-0.09;79.76
31357;BME280;60001;48.404;11.738;2023-03-04T06:16:03;96563.47;;;-0.12;79.50
31357;BME280;60001;48.404;11.738;2023-03-04T06:17:37;96580.13;;;-0.06;79.07
31357;BME280;60001;48.404;11.738;2023-03-04T06:19:09;96582.06;;;-0.08;79.50
31357;BME280;60001;48.404;11.738;2023-03-04T06:20:41;96582.06;;;-0.08;79.25
31357;BME280;60001;48.404;11.738;2023-03-04T06:22:14;96583.69;;;-0.07;79.61
31357;BME280;60001;48.404;11.738;2023-03-04T06:23:46;96588.53;;;-0.04;79.46
31357;BME280;60001;48.404;11.738;2023-03-04T06:25:18;96583.97;;;-0.02;80.33
31357;BME280;60001;48.404;11.738;2023-03-04T06:26:50;96585.22;;;0.02;79.54
31357;BME280;60001;48.404;11.738;2023-03-04T06:28:22;96586.13;;;0.09;79.58
31357;BME280;60001;48.404;11.738;2023-03-04T06:29:54;96589.97;;;0.13;79.83
31357;BME280;60001;48.404;11.738;2023-03-04T06:31:25;96584.72;;;0.21;80.05
31357;BME280;60001;48.404;11.738;2023-03-04T06:32:58;96587.56;;;0.26;80.11
31357;BME280;60001;48.404;11.738;2023-03-04T06:34:30;96591.84;;;0.34;80.12
31357;BME280;60001;48.404;11.738;2023-03-04T06:36:03;96599.72;;;0.41;80.01
31357;BME280;60001;48.404;11.738;2023-03-04T06:37:35;96598.81;;;0.48;79.89
31357;BME280;60001;48.404;11.738;2023-03-04T06:39:08;96594.50;;;0.55;79.96
31357;BME280;60001;48.404;11.738;2023-03-04T06:40:41;96603.66;;;0.66;79.94
31357;BME280;60001;48.404;11.738;2023-03-04T06:42:15;96596.91;;;0.72;80.39
31357;BME280;60001;48.404;11.738;2023-03-04T06:43:47;96605.22;;;0.82;80.27
31357;BME280;60001;48.404;11.738;2023-03-04T06:45:18;96604.31;;;0.90;79.85
31357;BME280;60001;48.404;11.738;2023-03-04T06:46:50;96606.56;;;0.93;79.94
31357;BME280;60001;48.404;11.738;2023-03-04T06:48:24;96603.03;;;1.00;79.37
31357;BME280;60001;48.404;11.738;2023-03-04T06:49:55;96603.72;;;1.09;79.47
31357;BME280;60001;48.404;11.738;2023-03-04T06:51:27;96599.66;;;1.21;80.14
31357;BME280;60001;48.404;11.738;2023-03-04T06:52:59;96605.59;;;1.36;79.78
31357;BME280;60001;48.404;11.738;2023-03-04T06:54:31;96613.53;;;1.50;80.07
31357;BME280;60001;48.404;11.738;2023-03-04T06:56:04;96613.03;;;1.61;79.89
31357;BME280;60001;48.404;11.738;2023-03-04T06:57:36;96612.50;;;1.72;78.69
31357;BME280;60001;48.404;11.738;2023-03-04T06:59:07;96611.75;;;1.78;79.14
31357;BME280;60001;48.404;11.738;2023-03-04T07:00:39;96613.22;;;1.87;78.22
31357;BME280;60001;48.404;11.738;2023-03-04T07:02:11;96612.72;;;1.99;79.17
31357;BME280;60001;48.404;11.738;2023-03-04T07:03:44;96614.16;;;2.08;78.33
31357;BME280;60001;48.404;11.738;2023-03-04T07:05:16;96615.66;;;2.17;78.44
31357;BME280;60001;48.404;11.738;2023-03-04T07:06:49;96620.47;;;2.20;77.88
31357;BME280;60001;48.404;11.738;2023-03-04T07:08:20;96614.91;;;2.23;77.19
31357;BME280;60001;48.404;11.738;2023-03-04T07:09:51;96622.50;;;2.25;76.56
31357;BME280;60001;48.404;11.738;2023-03-04T07:11:24;96610.25;;;2.18;76.78
31357;BME280;60001;48.404;11.738;2023-03-04T07:12:56;96628.53;;;2.25;77.17
31357;BME280;60001;48.404;11.738;2023-03-04T07:14:28;96623.91;;;2.27;76.52
31357;BME280;60001;48.404;11.738;2023-03-04T07:16:00;96626.75;;;2.32;77.10
31357;BME280;60001;48.404;11.738;2023-03-04T07:17:32;96623.59;;;2.37;76.43
31357;BME280;60001;48.404;11.738;2023-03-04T07:19:05;96620.19;;;2.43;76.92
31357;BME280;60001;48.404;11.738;2023-03-04T07:20:37;96622.03;;;2.49;76.14
31357;BME280;60001;48.404;11.738;2023-03-04T07:22:09;96631.31;;;2.58;76.77
31357;BME280;60001;48.404;11.738;2023-03-04T07:23:41;96631.16;;;2.66;76.25
31357;BME280;60001;48.404;11.738;2023-03-04T07:25:13;96628.97;;;2.70;75.59
31357;BME280;60001;48.404;11.738;2023-03-04T07:26:44;96629.34;;;2.67;75.07
31357;BME280;60001;48.404;11.738;2023-03-04T07:28:17;96632.34;;;2.64;75.16
31357;BME280;60001;48.404;11.738;2023-03-04T07:29:49;96619.66;;;2.54;75.43
31357;BME280;60001;48.404;11.738;2023-03-04T07:31:23;96632.16;;;2.65;75.08
31357;BME280;60001;48.404;11.738;2023-03-04T07:32:57;96628.91;;;2.63;75.17
31357;BME280;60001;48.404;11.738;2023-03-04T07:34:30;96632.75;;;2.67;74.97
31357;BME280;60001;48.404;11.738;2023-03-04T07:36:02;96630.00;;;2.75;75.88
31357;BME280;60001;48.404;11.738;2023-03-04T07:37:34;96641.06;;;2.84;75.87
31357;BME280;60001;48.404;11.738;2023-03-04T07:39:06;96640.91;;;2.92;75.20
31357;BME280;60001;48.404;11.738;2023-03-04T07:40:40;96640.91;;;2.99;74.73
31357;BME280;60001;48.404;11.738;2023-03-04T07:42:12;96641.13;;;3.04;74.33
31357;BME280;60001;48.404;11.738;2023-03-04T07:43:44;96627.09;;;3.05;74.47
31357;BME280;60001;48.404;11.738;2023-03-04T07:45:15;96645.38;;;3.12;73.75
31357;BME280;60001;48.404;11.738;2023-03-04T07:46:47;96640.16;;;3.12;73.61
31357;BME280;60001;48.404;11.738;2023-03-04T07:48:18;96648.41;;;3.15;73.73
31357;BME280;60001;48.404;11.738;2023-03-04T07:49:52;96644.38;;;3.19;72.93
31357;BME280;60001;48.404;11.738;2023-03-04T07:51:25;96655.25;;;3.23;73.16
31357;BME280;60001;48.404;11.738;2023-03-04T07:52:57;96655.47;;;3.28;73.33
31357;BME280;60001;48.404;11.738;2023-03-04T07:54:29;96649.66;;;3.33;72.46
31357;BME280;60001;48.404;11.738;2023-03-04T07:56:01;96652.69;;;3.36;72.71
31357;BME280;60001;48.404;11.738;2023-03-04T07:57:37;96650.28;;;3.41;72.45
31357;BME280;60001;48.404;11.738;2023-03-04T07:59:10;96655.31;;;3.43;71.26
31357;BME280;60001;48.404;11.738;2023-03-04T08:00:42;96655.13;;;3.51;71.72
31357;BME280;60001;48.404;11.738;2023-03-04T08:02:14;96648.09;;;3.51;70.10
31357;BME280;60001;48.404;11.738;2023-03-04T08:03:46;96639.44;;;3.51;71.34
31357;BME280;60001;48.404;11.738;2023-03-04T08:05:20;96664.38;;;3.73;70.64
31357;BME280;60001;48.404;11.738;2023-03-04T08:06:51;96656.78;;;3.85;71.39